sensor_id;sensor_type;location;lat;lon;timestamp;temperature;humidity
16301;DHT22;8258;51.020;4.248;2022-08-19T00:00:17;18.60;99.90
16301;DHT22;8258;51.020;4.248;2022-08-19T00:02:45;18.70;99.90
16301;DHT22;8258;51.020;4.248;2022-08-19T00:05:13;18.70;99.90
16301;DHT22;8258;51.020;4.248;2022-08-19T00:07:41;18.80;99.90
16301;DHT22;8258;51.020;4.248;2022-08-19T00:10:10;18.70;99.90
16301;DHT22;8258;51.020;4.248;2022-08-19T00:12:39;18.60;99.90
16301;DHT22;8258;51.020;4.248;2022-08-19T00:15:09;18.60;99.90
16301;DHT22;8258;51.020;4.248;2022-08-19T00:17:37;18.60;99.90
16301;DHT22;8258;51.020;4.248;2022-08-19T00:20:05;18.60;99.90
16301;DHT22;8258;51.020;4.248;2022-08-19T00:22:32;18.60;99.90
16301;DHT22;8258;51.020;4.248;2022-08-19T00:25:00;18.50;99.90
16301;DHT22;8258;51.020;4.248;2022-08-19T00:27:26;18.40;99.90
16301;DHT22;8258;51.020;4.248;2022-08-19T00:29:55;18.40;99.90
16301;DHT22;8258;51.020;4.248;2022-08-19T00:32:22;18.40;99.90
16301;DHT22;8258;51.020;4.248;2022-08-19T00:34:49;18.40;99.90
16301;DHT22;8258;51.020;4.248;2022-08-19T00:37:18;18.40;99.90
16301;DHT22;8258;51.020;4.248;2022-08-19T00:39:45;18.40;99.90
16301;DHT22;8258;51.020;4.248;2022-08-19T00:42:12;18.30;99.90
16301;DHT22;8258;51.020;4.248;2022-08-19T00:44:39;18.30;99.90
16301;DHT22;8258;51.020;4.248;2022-08-19T00:47:07;18.20;99.90
16301;DHT22;8258;51.020;4.248;2022-08-19T00:49:36;18.20;99.90
16301;DHT22;8258;51.020;4.248;2022-08-19T00:52:06;18.20;99.90
16301;DHT22;8258;51.020;4.248;2022-08-19T00:54:34;18.10;99.90
16301;DHT22;8258;51.020;4.248;2022-08-19T00:57:05;18.10;99.90
16301;DHT22;8258;51.020;4.248;2022-08-19T00:59:34;18.10;99.90
16301;DHT22;8258;51.020;4.248;2022-08-19T01:02:02;18.10;99.90
16301;DHT22;8258;51.020;4.248;2022-08-19T01:04:31;18.10;99.90
16301;DHT22;8258;51.020;4.248;2022-08-19T01:06:58;18.00;99.90
16301;DHT22;8258;51.020;4.248;2022-08-19T01:09:26;18.00;99.90
16301;DHT22;8258;51.020;4.248;2022-08-19T01:11:53;18.00;99.90
16301;DHT22;8258;51.020;4.248;2022-08-19T01:14:20;18.00;99.90
16301;DHT22;8258;51.020;4.248;2022-08-19T01:16:47;18.00;99.90
16301;DHT22;8258;51.020;4.248;2022-08-19T01:19:19;17.90;99.90
16301;DHT22;8258;51.020;4.248;2022-08-19T01:21:53;17.90;99.90
16301;DHT22;8258;51.020;4.248;2022-08-19T01:24:23;17.90;99.90
16301;DHT22;8258;51.020;4.248;2022-08-19T01:26:50;18.00;99.90
16301;DHT22;8258;51.020;4.248;2022-08-19T01:29:18;17.90;99.90
16301;DHT22;8258;51.020;4.248;2022-08-19T01:31:45;18.00;99.90
16301;DHT22;8258;51.020;4.248;2022-08-19T01:34:12;17.90;99.90
16301;DHT22;8258;51.020;4.248;2022-08-19T01:36:41;17.90;99.90
16301;DHT22;8258;51.020;4.248;2022-08-19T01:39:13;17.90;99.90
16301;DHT22;8258;51.020;4.248;2022-08-19T01:41:42;17.90;99.90
16301;DHT22;8258;51.020;4.248;2022-08-19T01:44:10;17.80;99.90
16301;DHT22;8258;51.020;4.248;2022-08-19T01:46:37;17.80;99.90
16301;DHT22;8258;51.020;4.248;2022-08-19T01:49:05;17.80;99.90
16301;DHT22;8258;51.020;4.248;2022-08-19T01:51:33;17.60;99.90
16301;DHT22;8258;51.020;4.248;2022-08-19T01:54:00;17.60;99.90
16301;DHT22;8258;51.020;4.248;2022-08-19T01:56:28;17.40;99.90
16301;DHT22;8258;51.020;4.248;2022-08-19T01:59:01;17.40;99.90
16301;DHT22;8258;51.020;4.248;2022-08-19T02:01:29;17.40;99.90
16301;DHT22;8258;51.020;4.248;2022-08-19T02:03:57;17.30;99.90
16301;DHT22;8258;51.020;4.248;2022-08-19T02:06:26;17.30;99.90
16301;DHT22;8258;51.020;4.248;2022-08-19T02:08:53;17.30;99.90
16301;DHT22;8258;51.020;4.248;2022-08-19T02:11:22;17.30;99.90
16301;DHT22;8258;51.020;4.248;2022-08-19T02:13:52;17.30;99.90
16301;DHT22;8258;51.020;4.248;2022-08-19T02:16:21;17.20;99.90
16301;DHT22;8258;51.020;4.248;2022-08-19T02:18:48;17.20;99.90
16301;DHT22;8258;51.020;4.248;2022-08-19T02:21:16;17.20;99.90
16301;DHT22;8258;51.020;4.248;2022-08-19T02:23:43;17.20;99.90
16301;DHT22;8258;51.020;4.248;2022-08-19T02:26:11;17.20;99.90
16301;DHT22;8258;51.020;4.248;2022-08-19T02:28:38;17.20;99.90
16301;DHT22;8258;51.020;4.248;2022-08-19T02:31:09;17.20;99.90
16301;DHT22;8258;51.020;4.248;2022-08-19T02:33:38;17.20;99.90
16301;DHT22;8258;51.020;4.248;2022-08-19T02:36:07;17.10;99.90
16301;DHT22;8258;51.020;4.248;2022-08-19T02:38:34;17.10;99.90
16301;DHT22;8258;51.020;4.248;2022-08-19T02:41:02;17.10;99.90
16301;DHT22;8258;51.020;4.248;2022-08-19T02:43:31;17.10;99.90
16301;DHT22;8258;51.020;4.248;2022-08-19T02:46:02;17.00;99.90
16301;DHT22;8258;51.020;4.248;2022-08-19T02:48:29;17.00;99.90
16301;DHT22;8258;51.020;4.248;2022-08-19T02:50:58;17.00;99.90
16301;DHT22;8258;51.020;4.248;2022-08-19T02:53:27;17.00;99.90
16301;DHT22;8258;51.020;4.248;2022-08-19T02:55:54;17.00;99.90
16301;DHT22;8258;51.020;4.248;2022-08-19T02:58:21;17.00;99.90
16301;DHT22;8258;51.020;4.248;2022-08-19T03:00:51;17.00;99.90
16301;DHT22;8258;51.020;4.248;2022-08-19T03:03:19;16.90;99.90
16301;DHT22;8258;51.020;4.248;2022-08-19T03:05:47;16.80;99.90
16301;DHT22;8258;51.020;4.248;2022-08-19T03:08:18;16.80;99.90
16301;DHT22;8258;51.020;4.248;2022-08-19T03:10:46;16.80;99.90
16301;DHT22;8258;51.020;4.248;2022-08-19T03:13:15;16.80;99.90
16301;DHT22;8258;51.020;4.248;2022-08-19T03:15:44;16.70;99.90
16301;DHT22;8258;51.020;4.248;2022-08-19T03:18:12;16.70;99.90
16301;DHT22;8258;51.020;4.248;2022-08-19T03:20:43;16.70;99.90
16301;DHT22;8258;51.020;4.248;2022-08-19T03:23:10;16.70;99.90
16301;DHT22;8258;51.020;4.248;2022-08-19T03:25:41;16.70;99.90
16301;DHT22;8258;51.020;4.248;2022-08-19T03:28:09;16.60;99.90
16301;DHT22;8258;51.020;4.248;2022-08-19T03:30:37;16.60;99.90
16301;DHT22;8258;51.020;4.248;2022-08-19T03:33:05;16.60;99.90
16301;DHT22;8258;51.020;4.248;2022-08-19T03:35:32;16.60;99.90
16301;DHT22;8258;51.020;4.248;2022-08-19T03:38:02;16.50;99.90
16301;DHT22;8258;51.020;4.248;2022-08-19T03:40:29;16.50;99.90
16301;DHT22;8258;51.020;4.248;2022-08-19T03:42:57;16.50;99.90
16301;DHT22;8258;51.020;4.248;2022-08-19T03:45:24;16.50;99.90
16301;DHT22;8258;51.020;4.248;2022-08-19T03:47:51;16.50;99.90
16301;DHT22;8258;51.020;4.248;2022-08-19T03:50:18;16.40;99.90
16301;DHT22;8258;51.020;4.248;2022-08-19T03:52:48;16.40;99.90
16301;DHT22;8258;51.020;4.248;2022-08-19T03:55:16;16.40;99.90
16301;DHT22;8258;51.020;4.248;2022-08-19T03:57:43;16.40;99.90
16301;DHT22;8258;51.020;4.248;2022-08-19T04:00:13;16.30;99.90
16301;DHT22;8258;51.020;4.248;2022-08-19T04:02:41;16.30;99.90
16301;DHT22;8258;51.020;4.248;2022-08-19T04:05:09;16.20;99.90
16301;DHT22;8258;51.020;4.248;2022-08-19T04:07:36;16.30;99.90
16301;DHT22;8258;51.020;4.248;2022-08-19T04:10:03;16.30;99.90
16301;DHT22;8258;51.020;4.248;2022-08-19T04:12:31;16.30;99.90
16301;DHT22;8258;51.020;4.248;2022-08-19T04:14:57;16.20;99.90
16301;DHT22;8258;51.020;4.248;2022-08-19T04:17:26;16.30;99.90
16301;DHT22;8258;51.020;4.248;2022-08-19T04:19:53;16.20;99.90
16301;DHT22;8258;51.020;4.248;2022-08-19T04:22:20;16.20;99.90
16301;DHT22;8258;51.020;4.248;2022-08-19T04:24:47;16.10;99.90
16301;DHT22;8258;51.020;4.248;2022-08-19T04:27:13;16.10;99.90
16301;DHT22;8258;51.020;4.248;2022-08-19T04:29:42;16.10;99.90
16301;DHT22;8258;51.020;4.248;2022-08-19T04:32:09;16.10;99.90
16301;DHT22;8258;51.020;4.248;2022-08-19T04:34:37;16.10;99.90
16301;DHT22;8258;51.020;4.248;2022-08-19T04:37:05;16.00;99.90
16301;DHT22;8258;51.020;4.248;2022-08-19T04:39:38;16.00;99.90
16301;DHT22;8258;51.020;4.248;2022-08-19T04:42:22;16.00;99.90
16301;DHT22;8258;51.020;4.248;2022-08-19T04:45:11;16.00;99.90
16301;DHT22;8258;51.020;4.248;2022-08-19T04:47:39;16.00;99.90
16301;DHT22;8258;51.020;4.248;2022-08-19T04:50:09;16.00;99.90
16301;DHT22;8258;51.020;4.248;2022-08-19T04:52:37;16.00;99.90
16301;DHT22;8258;51.020;4.248;2022-08-19T04:55:05;16.00;99.90
16301;DHT22;8258;51.020;4.248;2022-08-19T04:57:32;16.00;99.90
16301;DHT22;8258;51.020;4.248;2022-08-19T04:59:59;16.00;99.90
16301;DHT22;8258;51.020;4.248;2022-08-19T05:02:26;16.00;99.90
16301;DHT22;8258;51.020;4.248;2022-08-19T05:04:57;16.00;99.90
16301;DHT22;8258;51.020;4.248;2022-08-19T05:07:27;16.00;99.90
16301;DHT22;8258;51.020;4.248;2022-08-19T05:09:54;16.00;99.90
16301;DHT22;8258;51.020;4.248;2022-08-19T05:12:21;16.00;99.90
16301;DHT22;8258;51.020;4.248;2022-08-19T05:14:48;16.10;99.90
16301;DHT22;8258;51.020;4.248;2022-08-19T05:17:15;16.20;99.90
16301;DHT22;8258;51.020;4.248;2022-08-19T05:19:42;16.20;99.90
16301;DHT22;8258;51.020;4.248;2022-08-19T05:22:23;16.20;99.90
16301;DHT22;8258;51.020;4.248;2022-08-19T05:25:03;16.30;99.90
16301;DHT22;8258;51.020;4.248;2022-08-19T05:27:30;16.30;99.90
16301;DHT22;8258;51.020;4.248;2022-08-19T05:29:57;16.40;99.90
16301;DHT22;8258;51.020;4.248;2022-08-19T05:32:25;16.50;99.90
16301;DHT22;8258;51.020;4.248;2022-08-19T05:34:53;16.60;99.90
16301;DHT22;8258;51.020;4.248;2022-08-19T05:37:20;16.70;99.90
16301;DHT22;8258;51.020;4.248;2022-08-19T05:39:47;16.80;99.90
16301;DHT22;8258;51.020;4.248;2022-08-19T05:42:16;16.90;99.90
16301;DHT22;8258;51.020;4.248;2022-08-19T05:44:45;16.90;99.90
16301;DHT22;8258;51.020;4.248;2022-08-19T05:47:15;17.00;99.90
16301;DHT22;8258;51.020;4.248;2022-08-19T05:49:44;17.00;99.90
16301;DHT22;8258;51.020;4.248;2022-08-19T05:52:12;17.10;99.90
16301;DHT22;8258;51.020;4.248;2022-08-19T05:54:41;17.30;99.90
16301;DHT22;8258;51.020;4.248;2022-08-19T05:57:09;17.40;99.90
16301;DHT22;8258;51.020;4.248;2022-08-19T05:59:37;17.50;99.90
16301;DHT22;8258;51.020;4.248;2022-08-19T06:02:06;17.60;99.90
16301;DHT22;8258;51.020;4.248;2022-08-19T06:04:33;17.60;99.90
16301;DHT22;8258;51.020;4.248;2022-08-19T06:07:00;17.70;99.90
16301;DHT22;8258;51.020;4.248;2022-08-19T06:09:28;17.70;99.90
16301;DHT22;8258;51.020;4.248;2022-08-19T06:11:56;17.90;99.90
16301;DHT22;8258;51.020;4.248;2022-08-19T06:14:28;18.00;99.90
16301;DHT22;8258;51.020;4.248;2022-08-19T06:16:57;18.20;99.90
16301;DHT22;8258;51.020;4.248;2022-08-19T06:19:28;18.20;99.90
16301;DHT22;8258;51.020;4.248;2022-08-19T06:21:56;18.30;99.90
16301;DHT22;8258;51.020;4.248;2022-08-19T06:24:25;18.40;99.90
16301;DHT22;8258;51.020;4.248;2022-08-19T06:26:54;18.50;99.90
16301;DHT22;8258;51.020;4.248;2022-08-19T06:29:25;18.50;99.90
16301;DHT22;8258;51.020;4.248;2022-08-19T06:31:55;18.70;99.90
16301;DHT22;8258;51.020;4.248;2022-08-19T06:34:24;18.70;99.90
16301;DHT22;8258;51.020;4.248;2022-08-19T06:36:53;18.70;99.90
16301;DHT22;8258;51.020;4.248;2022-08-19T06:39:22;18.70;99.90
16301;DHT22;8258;51.020;4.248;2022-08-19T06:41:51;18.80;99.90
16301;DHT22;8258;51.020;4.248;2022-08-19T06:44:20;18.80;99.90
16301;DHT22;8258;51.020;4.248;2022-08-19T06:46:47;18.80;99.90
16301;DHT22;8258;51.020;4.248;2022-08-19T06:49:14;18.90;99.90
16301;DHT22;8258;51.020;4.248;2022-08-19T06:51:44;19.00;99.90
16301;DHT22;8258;51.020;4.248;2022-08-19T06:54:13;18.80;99.90
16301;DHT22;8258;51.020;4.248;2022-08-19T06:56:40;18.90;99.90
16301;DHT22;8258;51.020;4.248;2022-08-19T06:59:10;18.90;99.90
16301;DHT22;8258;51.020;4.248;2022-08-19T07:01:39;18.90;99.90
16301;DHT22;8258;51.020;4.248;2022-08-19T07:04:06;18.90;99.90
16301;DHT22;8258;51.020;4.248;2022-08-19T07:06:34;19.00;99.90
16301;DHT22;8258;51.020;4.248;2022-08-19T07:09:03;19.30;99.90
16301;DHT22;8258;51.020;4.248;2022-08-19T07:11:30;19.40;99.90
16301;DHT22;8258;51.020;4.248;2022-08-19T07:13:58;19.50;99.90
16301;DHT22;8258;51.020;4.248;2022-08-19T07:16:25;19.40;99.90
16301;DHT22;8258;51.020;4.248;2022-08-19T07:18:53;19.50;99.90
16301;DHT22;8258;51.020;4.248;2022-08-19T07:21:23;19.50;99.90
16301;DHT22;8258;51.020;4.248;2022-08-19T07:23:52;19.50;99.90
16301;DHT22;8258;51.020;4.248;2022-08-19T07:26:23;19.50;99.90
16301;DHT22;8258;51.020;4.248;2022-08-19T07:28:50;19.80;99.90
16301;DHT22;8258;51.020;4.248;2022-08-19T07:31:19;20.10;99.90
16301;DHT22;8258;51.020;4.248;2022-08-19T07:33:48;20.40;99.90
16301;DHT22;8258;51.020;4.248;2022-08-19T07:36:18;20.60;99.90
16301;DHT22;8258;51.020;4.248;2022-08-19T07:38:47;20.70;99.90
16301;DHT22;8258;51.020;4.248;2022-08-19T07:41:19;20.80;99.90
16301;DHT22;8258;51.020;4.248;2022-08-19T07:43:48;21.00;99.90
16301;DHT22;8258;51.020;4.248;2022-08-19T07:46:15;21.50;99.90
16301;DHT22;8258;51.020;4.248;2022-08-19T07:48:44;22.90;99.90
16301;DHT22;8258;51.020;4.248;2022-08-19T07:51:13;23.30;99.90
16301;DHT22;8258;51.020;4.248;2022-08-19T07:53:41;23.00;99.90
16301;DHT22;8258;51.020;4.248;2022-08-19T07:56:08;22.50;99.90
16301;DHT22;8258;51.020;4.248;2022-08-19T07:58:39;22.10;99.90
16301;DHT22;8258;51.020;4.248;2022-08-19T08:01:10;21.80;99.90
16301;DHT22;8258;51.020;4.248;2022-08-19T08:03:37;21.70;99.90
16301;DHT22;8258;51.020;4.248;2022-08-19T08:06:23;21.70;99.90
16301;DHT22;8258;51.020;4.248;2022-08-19T08:09:07;21.90;99.90
16301;DHT22;8258;51.020;4.248;2022-08-19T08:11:37;21.80;99.90
16301;DHT22;8258;51.020;4.248;2022-08-19T08:14:04;21.80;99.90
16301;DHT22;8258;51.020;4.248;2022-08-19T08:16:35;21.80;99.90
16301;DHT22;8258;51.020;4.248;2022-08-19T08:19:03;21.80;99.90
16301;DHT22;8258;51.020;4.248;2022-08-19T08:21:31;21.80;99.90
16301;DHT22;8258;51.020;4.248;2022-08-19T08:23:58;21.70;99.90
16301;DHT22;8258;51.020;4.248;2022-08-19T08:26:25;21.70;99.90
16301;DHT22;8258;51.020;4.248;2022-08-19T08:28:53;21.50;99.90
16301;DHT22;8258;51.020;4.248;2022-08-19T08:31:20;21.50;99.90
16301;DHT22;8258;51.020;4.248;2022-08-19T08:33:49;21.30;99.90
16301;DHT22;8258;51.020;4.248;2022-08-19T08:36:16;21.50;99.90
16301;DHT22;8258;51.020;4.248;2022-08-19T08:38:44;21.50;99.90
16301;DHT22;8258;51.020;4.248;2022-08-19T08:41:18;21.70;99.90
16301;DHT22;8258;51.020;4.248;2022-08-19T08:43:50;21.60;99.90
16301;DHT22;8258;51.020;4.248;2022-08-19T08:46:22;21.80;99.90
16301;DHT22;8258;51.020;4.248;2022-08-19T08:48:58;21.70;99.90
16301;DHT22;8258;51.020;4.248;2022-08-19T08:51:28;21.80;99.90
16301;DHT22;8258;51.020;4.248;2022-08-19T08:53:59;21.80;99.90
16301;DHT22;8258;51.020;4.248;2022-08-19T08:56:27;21.80;99.90
16301;DHT22;8258;51.020;4.248;2022-08-19T08:58:59;21.70;99.90
16301;DHT22;8258;51.020;4.248;2022-08-19T09:01:27;21.70;99.90
16301;DHT22;8258;51.020;4.248;2022-08-19T09:03:55;21.70;99.90
16301;DHT22;8258;51.020;4.248;2022-08-19T09:06:26;21.80;99.90
16301;DHT22;8258;51.020;4.248;2022-08-19T09:09:01;21.90;99.90
16301;DHT22;8258;51.020;4.248;2022-08-19T09:11:52;21.90;99.90
16301;DHT22;8258;51.020;4.248;2022-08-19T09:14:34;22.00;99.90
16301;DHT22;8258;51.020;4.248;2022-08-19T09:17:02;22.10;99.90
16301;DHT22;8258;51.020;4.248;2022-08-19T09:19:35;22.20;99.90
16301;DHT22;8258;51.020;4.248;2022-08-19T09:22:02;22.40;99.90
16301;DHT22;8258;51.020;4.248;2022-08-19T09:24:30;22.40;99.90
16301;DHT22;8258;51.020;4.248;2022-08-19T09:26:57;22.30;99.90
16301;DHT22;8258;51.020;4.248;2022-08-19T09:29:24;22.30;99.90
16301;DHT22;8258;51.020;4.248;2022-08-19T09:31:51;22.40;99.90
16301;DHT22;8258;51.020;4.248;2022-08-19T09:34:19;22.40;99.90
16301;DHT22;8258;51.020;4.248;2022-08-19T09:36:47;22.30;99.90
16301;DHT22;8258;51.020;4.248;2022-08-19T09:39:21;22.20;99.90
16301;DHT22;8258;51.020;4.248;2022-08-19T09:41:48;22.10;99.90
16301;DHT22;8258;51.020;4.248;2022-08-19T09:44:15;22.00;99.90
16301;DHT22;8258;51.020;4.248;2022-08-19T09:46:42;22.00;99.90
16301;DHT22;8258;51.020;4.248;2022-08-19T09:49:12;22.20;99.90
16301;DHT22;8258;51.020;4.248;2022-08-19T09:51:40;22.20;99.90
16301;DHT22;8258;51.020;4.248;2022-08-19T09:54:09;22.30;99.90
16301;DHT22;8258;51.020;4.248;2022-08-19T09:56:36;22.30;99.90
16301;DHT22;8258;51.020;4.248;2022-08-19T09:59:03;22.30;99.90
16301;DHT22;8258;51.020;4.248;2022-08-19T10:01:31;22.40;99.90
16301;DHT22;8258;51.020;4.248;2022-08-19T10:03:59;22.40;99.90
16301;DHT22;8258;51.020;4.248;2022-08-19T10:06:28;22.30;99.90
16301;DHT22;8258;51.020;4.248;2022-08-19T10:08:58;22.30;99.90
16301;DHT22;8258;51.020;4.248;2022-08-19T10:11:27;22.50;99.90
16301;DHT22;8258;51.020;4.248;2022-08-19T10:13:54;22.60;99.90
16301;DHT22;8258;51.020;4.248;2022-08-19T10:16:23;22.70;99.90
16301;DHT22;8258;51.020;4.248;2022-08-19T10:18:51;22.80;99.90
16301;DHT22;8258;51.020;4.248;2022-08-19T10:21:20;22.90;99.90
16301;DHT22;8258;51.020;4.248;2022-08-19T10:23:50;22.90;99.90
16301;DHT22;8258;51.020;4.248;2022-08-19T10:26:19;23.00;99.90
16301;DHT22;8258;51.020;4.248;2022-08-19T10:28:48;22.80;99.90
16301;DHT22;8258;51.020;4.248;2022-08-19T10:31:18;22.70;99.90
16301;DHT22;8258;51.020;4.248;2022-08-19T10:33:46;22.70;99.90
16301;DHT22;8258;51.020;4.248;2022-08-19T10:36:18;22.60;99.90
16301;DHT22;8258;51.020;4.248;2022-08-19T10:38:48;22.50;99.90
16301;DHT22;8258;51.020;4.248;2022-08-19T10:41:17;22.50;99.90
16301;DHT22;8258;51.020;4.248;2022-08-19T10:43:45;22.60;99.90
16301;DHT22;8258;51.020;4.248;2022-08-19T10:46:15;22.60;99.90
16301;DHT22;8258;51.020;4.248;2022-08-19T10:48:42;22.60;99.90
16301;DHT22;8258;51.020;4.248;2022-08-19T10:51:12;22.60;99.90
16301;DHT22;8258;51.020;4.248;2022-08-19T10:53:57;22.60;99.90
16301;DHT22;8258;51.020;4.248;2022-08-19T10:56:25;22.60;99.90
16301;DHT22;8258;51.020;4.248;2022-08-19T10:59:09;22.50;99.90
16301;DHT22;8258;51.020;4.248;2022-08-19T11:01:41;22.60;99.90
16301;DHT22;8258;51.020;4.248;2022-08-19T11:04:09;22.50;99.90
16301;DHT22;8258;51.020;4.248;2022-08-19T11:06:39;22.60;99.90
16301;DHT22;8258;51.020;4.248;2022-08-19T11:09:07;22.70;99.90
16301;DHT22;8258;51.020;4.248;2022-08-19T11:11:34;22.60;99.90
16301;DHT22;8258;51.020;4.248;2022-08-19T11:14:05;22.40;99.90
16301;DHT22;8258;51.020;4.248;2022-08-19T11:16:33;22.40;99.90
16301;DHT22;8258;51.020;4.248;2022-08-19T11:19:01;22.50;99.90
16301;DHT22;8258;51.020;4.248;2022-08-19T11:21:30;22.70;99.90
16301;DHT22;8258;51.020;4.248;2022-08-19T11:23:59;22.90;99.90
16301;DHT22;8258;51.020;4.248;2022-08-19T11:26:29;23.30;99.90
16301;DHT22;8258;51.020;4.248;2022-08-19T11:28:57;23.80;99.90
16301;DHT22;8258;51.020;4.248;2022-08-19T11:31:26;24.30;99.90
16301;DHT22;8258;51.020;4.248;2022-08-19T11:33:53;24.80;99.90
16301;DHT22;8258;51.020;4.248;2022-08-19T11:36:21;25.30;99.90
16301;DHT22;8258;51.020;4.248;2022-08-19T11:38:49;25.60;99.90
16301;DHT22;8258;51.020;4.248;2022-08-19T11:41:18;25.70;99.90
16301;DHT22;8258;51.020;4.248;2022-08-19T11:43:45;26.00;99.90
16301;DHT22;8258;51.020;4.248;2022-08-19T11:46:15;26.10;99.90
16301;DHT22;8258;51.020;4.248;2022-08-19T11:48:43;26.20;99.90
16301;DHT22;8258;51.020;4.248;2022-08-19T11:51:12;26.00;99.90
16301;DHT22;8258;51.020;4.248;2022-08-19T11:53:41;25.60;99.90
16301;DHT22;8258;51.020;4.248;2022-08-19T11:56:08;25.50;99.90
16301;DHT22;8258;51.020;4.248;2022-08-19T11:58:36;25.70;99.90
16301;DHT22;8258;51.020;4.248;2022-08-19T12:01:06;26.00;99.90
16301;DHT22;8258;51.020;4.248;2022-08-19T12:03:33;26.20;99.90
16301;DHT22;8258;51.020;4.248;2022-08-19T12:06:04;26.00;99.90
16301;DHT22;8258;51.020;4.248;2022-08-19T12:08:31;25.80;99.90
16301;DHT22;8258;51.020;4.248;2022-08-19T12:10:59;25.60;99.90
16301;DHT22;8258;51.020;4.248;2022-08-19T12:13:27;25.50;99.90
16301;DHT22;8258;51.020;4.248;2022-08-19T12:15:55;25.60;99.90
16301;DHT22;8258;51.020;4.248;2022-08-19T12:18:22;25.90;99.90
16301;DHT22;8258;51.020;4.248;2022-08-19T12:20:51;26.40;99.90
16301;DHT22;8258;51.020;4.248;2022-08-19T12:23:20;26.50;99.90
16301;DHT22;8258;51.020;4.248;2022-08-19T12:25:48;26.40;99.90
16301;DHT22;8258;51.020;4.248;2022-08-19T12:28:19;26.20;99.90
16301;DHT22;8258;51.020;4.248;2022-08-19T12:30:46;25.70;99.90
16301;DHT22;8258;51.020;4.248;2022-08-19T12:33:14;25.50;99.90
16301;DHT22;8258;51.020;4.248;2022-08-19T12:35:41;25.30;99.90
16301;DHT22;8258;51.020;4.248;2022-08-19T12:38:12;24.60;99.90
16301;DHT22;8258;51.020;4.248;2022-08-19T12:40:40;24.00;99.90
16301;DHT22;8258;51.020;4.248;2022-08-19T12:43:07;23.70;99.90
16301;DHT22;8258;51.020;4.248;2022-08-19T12:45:36;23.80;99.90
16301;DHT22;8258;51.020;4.248;2022-08-19T12:48:03;24.10;99.90
16301;DHT22;8258;51.020;4.248;2022-08-19T12:50:30;24.40;99.90
16301;DHT22;8258;51.020;4.248;2022-08-19T12:52:57;24.80;99.90
16301;DHT22;8258;51.020;4.248;2022-08-19T12:55:24;25.20;99.90
16301;DHT22;8258;51.020;4.248;2022-08-19T12:57:53;25.80;99.90
16301;DHT22;8258;51.020;4.248;2022-08-19T13:00:21;26.30;99.90
16301;DHT22;8258;51.020;4.248;2022-08-19T13:02:51;26.80;99.90
16301;DHT22;8258;51.020;4.248;2022-08-19T13:05:20;27.40;99.90
16301;DHT22;8258;51.020;4.248;2022-08-19T13:07:49;27.50;99.90
16301;DHT22;8258;51.020;4.248;2022-08-19T13:10:18;28.50;99.90
16301;DHT22;8258;51.020;4.248;2022-08-19T13:12:47;28.10;99.90
16301;DHT22;8258;51.020;4.248;2022-08-19T13:15:15;29.00;99.90
16301;DHT22;8258;51.020;4.248;2022-08-19T13:17:46;29.50;99.90
16301;DHT22;8258;51.020;4.248;2022-08-19T13:20:16;28.90;99.90
16301;DHT22;8258;51.020;4.248;2022-08-19T13:22:44;28.50;99.90
16301;DHT22;8258;51.020;4.248;2022-08-19T13:25:12;28.00;99.90
16301;DHT22;8258;51.020;4.248;2022-08-19T13:27:41;27.60;99.90
16301;DHT22;8258;51.020;4.248;2022-08-19T13:30:13;27.30;99.90
16301;DHT22;8258;51.020;4.248;2022-08-19T13:32:57;27.60;99.90
16301;DHT22;8258;51.020;4.248;2022-08-19T13:35:44;28.60;99.90
16301;DHT22;8258;51.020;4.248;2022-08-19T13:38:12;28.40;99.90
16301;DHT22;8258;51.020;4.248;2022-08-19T13:40:40;28.40;99.90
16301;DHT22;8258;51.020;4.248;2022-08-19T13:43:08;28.50;99.90
16301;DHT22;8258;51.020;4.248;2022-08-19T13:45:36;29.70;99.90
16301;DHT22;8258;51.020;4.248;2022-08-19T13:48:05;30.00;99.90
16301;DHT22;8258;51.020;4.248;2022-08-19T13:50:37;31.20;99.90
16301;DHT22;8258;51.020;4.248;2022-08-19T13:53:07;30.80;99.90
16301;DHT22;8258;51.020;4.248;2022-08-19T13:55:35;29.40;99.90
16301;DHT22;8258;51.020;4.248;2022-08-19T13:58:03;28.50;99.90
16301;DHT22;8258;51.020;4.248;2022-08-19T14:00:33;28.20;99.90
16301;DHT22;8258;51.020;4.248;2022-08-19T14:03:01;28.20;99.90
16301;DHT22;8258;51.020;4.248;2022-08-19T14:05:29;29.00;99.90
16301;DHT22;8258;51.020;4.248;2022-08-19T14:07:57;30.20;99.90
16301;DHT22;8258;51.020;4.248;2022-08-19T14:10:27;28.80;99.90
16301;DHT22;8258;51.020;4.248;2022-08-19T14:12:57;28.10;99.90
16301;DHT22;8258;51.020;4.248;2022-08-19T14:15:25;27.70;99.90
16301;DHT22;8258;51.020;4.248;2022-08-19T14:17:52;26.90;99.90
16301;DHT22;8258;51.020;4.248;2022-08-19T14:20:20;26.60;99.90
16301;DHT22;8258;51.020;4.248;2022-08-19T14:22:48;26.30;99.90
16301;DHT22;8258;51.020;4.248;2022-08-19T14:25:17;26.10;99.90
16301;DHT22;8258;51.020;4.248;2022-08-19T14:27:47;25.70;99.90
16301;DHT22;8258;51.020;4.248;2022-08-19T14:30:16;25.40;99.90
16301;DHT22;8258;51.020;4.248;2022-08-19T14:32:44;25.40;99.90
16301;DHT22;8258;51.020;4.248;2022-08-19T14:35:12;25.30;99.90
16301;DHT22;8258;51.020;4.248;2022-08-19T14:37:40;25.00;99.90
16301;DHT22;8258;51.020;4.248;2022-08-19T14:40:08;25.10;99.90
16301;DHT22;8258;51.020;4.248;2022-08-19T14:42:36;24.80;99.90
16301;DHT22;8258;51.020;4.248;2022-08-19T14:45:05;24.60;99.90
16301;DHT22;8258;51.020;4.248;2022-08-19T14:47:32;24.90;99.90
16301;DHT22;8258;51.020;4.248;2022-08-19T14:49:59;25.50;99.90
16301;DHT22;8258;51.020;4.248;2022-08-19T14:52:26;25.90;99.90
16301;DHT22;8258;51.020;4.248;2022-08-19T14:54:53;26.00;99.90
16301;DHT22;8258;51.020;4.248;2022-08-19T14:57:20;26.30;99.90
16301;DHT22;8258;51.020;4.248;2022-08-19T14:59:47;27.00;99.90
16301;DHT22;8258;51.020;4.248;2022-08-19T15:02:16;27.90;99.90
16301;DHT22;8258;51.020;4.248;2022-08-19T15:04:43;28.10;99.90
16301;DHT22;8258;51.020;4.248;2022-08-19T15:07:10;28.00;99.90
16301;DHT22;8258;51.020;4.248;2022-08-19T15:09:37;27.50;99.90
16301;DHT22;8258;51.020;4.248;2022-08-19T15:12:05;27.70;99.90
16301;DHT22;8258;51.020;4.248;2022-08-19T15:14:32;28.70;99.90
16301;DHT22;8258;51.020;4.248;2022-08-19T15:17:01;29.60;99.90
16301;DHT22;8258;51.020;4.248;2022-08-19T15:19:30;29.10;99.90
16301;DHT22;8258;51.020;4.248;2022-08-19T15:21:58;28.40;99.90
16301;DHT22;8258;51.020;4.248;2022-08-19T15:24:26;28.80;99.90
16301;DHT22;8258;51.020;4.248;2022-08-19T15:26:53;28.90;99.90
16301;DHT22;8258;51.020;4.248;2022-08-19T15:29:21;30.80;99.90
16301;DHT22;8258;51.020;4.248;2022-08-19T15:31:50;32.20;99.90
16301;DHT22;8258;51.020;4.248;2022-08-19T15:34:17;32.40;99.90
16301;DHT22;8258;51.020;4.248;2022-08-19T15:36:45;31.90;99.90
16301;DHT22;8258;51.020;4.248;2022-08-19T15:39:12;30.90;99.90
16301;DHT22;8258;51.020;4.248;2022-08-19T15:41:41;29.60;99.90
16301;DHT22;8258;51.020;4.248;2022-08-19T15:44:10;28.50;99.90
16301;DHT22;8258;51.020;4.248;2022-08-19T15:46:39;27.50;99.90
16301;DHT22;8258;51.020;4.248;2022-08-19T15:49:07;26.90;99.90
16301;DHT22;8258;51.020;4.248;2022-08-19T15:51:37;27.00;99.90
16301;DHT22;8258;51.020;4.248;2022-08-19T15:54:09;27.00;99.90